createdAt,value
2018-06-21T00:02:17.527Z,7.72
2018-06-21T00:04:46.676Z,9.05
2018-06-21T00:07:16.103Z,9.28
2018-06-21T00:09:45.298Z,8.35
2018-06-21T00:12:14.503Z,8.20
2018-06-21T00:14:43.776Z,10.60
2018-06-21T00:17:13.057Z,7.65
2018-06-21T00:19:42.295Z,8.43
2018-06-21T00:22:11.571Z,8.03
2018-06-21T00:24:40.792Z,8.63
2018-06-21T00:27:10.516Z,9.55
2018-06-21T00:29:39.825Z,8.55
2018-06-21T00:32:09.068Z,8.78
2018-06-21T00:34:38.304Z,7.05
2018-06-21T00:37:07.647Z,8.45
2018-06-21T00:39:37.201Z,7.53
2018-06-21T00:42:06.691Z,6.37
2018-06-21T00:44:35.895Z,6.35
2018-06-21T00:47:05.152Z,8.18
2018-06-21T00:49:34.975Z,8.68
2018-06-21T00:52:04.311Z,8.55
2018-06-21T00:54:33.591Z,6.95
2018-06-21T00:57:02.863Z,10.03
2018-06-21T00:59:41.025Z,7.85
2018-06-21T01:02:10.309Z,6.37
2018-06-21T01:04:39.580Z,9.20
2018-06-21T01:07:08.847Z,7.10
2018-06-21T01:09:38.091Z,7.12
2018-06-21T01:12:07.324Z,7.58
2018-06-21T01:14:36.575Z,6.95
2018-06-21T01:17:06.079Z,6.90
2018-06-21T01:19:36.011Z,6.37
2018-06-21T01:22:05.287Z,8.83
2018-06-21T01:24:34.530Z,6.37
2018-06-21T01:27:03.767Z,7.03
2018-06-21T01:29:33.043Z,6.75
2018-06-21T01:32:02.654Z,7.30
2018-06-21T01:34:31.950Z,8.53
2018-06-21T01:37:01.175Z,6.65
2018-06-21T01:39:30.493Z,9.90
2018-06-21T01:41:59.733Z,6.92
2018-06-21T01:44:28.981Z,8.18
2018-06-21T01:46:58.175Z,8.43
2018-06-21T01:49:27.451Z,7.83
2018-06-21T01:51:56.747Z,8.13
2018-06-21T01:54:26.520Z,8.70
2018-06-21T01:56:55.800Z,8.23
2018-06-21T01:59:25.507Z,9.43
2018-06-21T02:01:54.789Z,9.10
2018-06-21T02:04:23.984Z,9.10
2018-06-21T02:06:53.211Z,9.68
2018-06-21T02:09:22.416Z,9.05
2018-06-21T02:11:51.632Z,8.83
2018-06-21T02:14:20.905Z,8.85
2018-06-21T02:16:50.104Z,8.75
2018-06-21T02:19:19.333Z,10.43
2018-06-21T02:21:48.559Z,9.85
2018-06-21T02:24:17.895Z,9.93
2018-06-21T02:26:47.136Z,9.13
2018-06-21T02:29:17.015Z,10.58
2018-06-21T02:31:46.252Z,10.88
2018-06-21T02:34:15.541Z,9.68
2018-06-21T02:36:44.765Z,11.18
2018-06-21T02:39:14.041Z,10.35
2018-06-21T02:41:43.708Z,11.40
2018-06-21T02:44:12.980Z,9.73
2018-06-21T02:46:42.366Z,9.58
2018-06-21T02:49:11.609Z,9.60
2018-06-21T02:51:40.859Z,11.70
2018-06-21T02:54:10.145Z,10.08
2018-06-21T02:56:40.459Z,11.80
2018-06-21T02:59:09.835Z,13.78
2018-06-21T03:01:38.999Z,11.93
2018-06-21T03:04:08.245Z,10.48
2018-06-21T03:06:37.476Z,11.30
2018-06-21T03:09:08.501Z,10.75
2018-06-21T03:11:37.814Z,11.97
2018-06-21T03:14:07.228Z,11.80
2018-06-21T03:16:36.545Z,10.18
2018-06-21T03:19:05.792Z,10.60
2018-06-21T03:21:35.009Z,12.10
2018-06-21T03:24:04.777Z,11.83
2018-06-21T03:26:34.093Z,11.15
2018-06-21T03:29:03.319Z,14.28
2018-06-21T03:31:32.555Z,10.15
2018-06-21T03:34:01.820Z,11.05
2018-06-21T03:36:31.034Z,9.68
2018-06-21T03:39:00.262Z,11.03
2018-06-21T03:41:30.127Z,10.48
2018-06-21T03:43:59.469Z,10.13
2018-06-21T03:46:29.339Z,11.85
2018-06-21T03:48:58.640Z,13.10
2018-06-21T03:51:27.924Z,10.88
2018-06-21T03:53:57.479Z,12.40
2018-06-21T03:56:26.760Z,10.18
2018-06-21T03:58:55.992Z,10.53
2018-06-21T04:01:25.758Z,13.20
2018-06-21T04:03:55.068Z,12.98
2018-06-21T04:06:24.431Z,10.63
2018-06-21T04:08:53.615Z,11.10
2018-06-21T04:11:22.885Z,11.00
2018-06-21T04:13:52.187Z,14.65
2018-06-21T04:16:21.776Z,13.08
2018-06-21T04:18:51.084Z,14.58
2018-06-21T04:21:21.143Z,13.40
2018-06-21T04:23:50.490Z,12.98
2018-06-21T04:26:19.912Z,14.63
2018-06-21T04:28:49.234Z,13.18
2018-06-21T04:31:18.879Z,14.00
2018-06-21T04:33:48.088Z,14.63
2018-06-21T04:36:17.386Z,11.73
2018-06-21T04:38:46.592Z,14.45
2018-06-21T04:41:15.918Z,13.85
2018-06-21T04:43:45.145Z,14.40
2018-06-21T04:46:14.542Z,11.25
2018-06-21T04:48:43.835Z,12.53
2018-06-21T04:51:13.116Z,11.97
2018-06-21T04:53:42.416Z,11.93
2018-06-21T04:56:11.685Z,11.40
2018-06-21T04:58:41.108Z,13.62
2018-06-21T05:01:10.532Z,13.55
2018-06-21T05:03:39.764Z,12.47
2018-06-21T05:06:09.011Z,13.22
2018-06-21T05:08:38.268Z,14.25
2018-06-21T05:11:07.536Z,14.78
2018-06-21T05:13:36.999Z,13.13
2018-06-21T05:16:06.282Z,12.93
2018-06-21T05:18:35.544Z,14.38
2018-06-21T05:21:04.938Z,15.70
2018-06-21T05:23:34.475Z,15.30
2018-06-21T05:26:03.782Z,17.10
2018-06-21T05:28:33.256Z,17.67
2018-06-21T05:31:02.526Z,20.72
2018-06-21T05:33:31.916Z,17.75
2018-06-21T05:36:01.212Z,18.20
2018-06-21T05:38:30.488Z,28.40
2018-06-21T05:40:59.747Z,28.40
2018-06-21T05:43:28.976Z,29.35
2018-06-21T05:45:58.211Z,29.45
2018-06-21T05:48:28.237Z,32.83
2018-06-21T05:50:57.638Z,33.45
2018-06-21T05:53:26.860Z,32.93
2018-06-21T05:55:56.084Z,31.12
2018-06-21T05:58:25.304Z,26.17
2018-06-21T06:00:54.524Z,25.30
2018-06-21T06:03:23.839Z,26.17
2018-06-21T06:05:53.176Z,24.52
2018-06-21T06:08:22.632Z,28.70
2018-06-21T06:10:51.744Z,27.58
2018-06-21T06:13:21.663Z,27.55
2018-06-21T06:15:50.927Z,26.70
2018-06-21T06:18:20.192Z,27.13
2018-06-21T06:20:49.475Z,27.48
2018-06-21T06:23:18.731Z,26.77
2018-06-21T06:25:47.975Z,25.60
2018-06-21T06:28:17.287Z,24.55
2018-06-21T06:30:46.547Z,22.75
2018-06-21T06:33:16.111Z,20.62
2018-06-21T06:35:45.419Z,20.65
2018-06-21T06:38:14.677Z,19.75
2018-06-21T06:40:43.983Z,19.45
2018-06-21T06:43:13.232Z,18.10
2018-06-21T06:45:42.596Z,15.72
2018-06-21T06:48:11.859Z,13.58
2018-06-21T06:50:41.928Z,12.95
2018-06-21T06:53:11.229Z,13.50
2018-06-21T06:55:40.582Z,13.93
2018-06-21T06:58:10.188Z,12.82
2018-06-21T07:00:40.120Z,13.00
2018-06-21T07:03:10.297Z,13.32
2018-06-21T07:05:39.644Z,13.75
2018-06-21T07:08:08.983Z,13.78
2018-06-21T07:10:38.155Z,15.50
2018-06-21T07:13:07.781Z,14.85
2018-06-21T07:15:37.068Z,15.10
2018-06-21T07:18:06.393Z,16.25
2018-06-21T07:20:36.267Z,14.38
2018-06-21T07:23:05.599Z,17.52
2018-06-21T07:25:34.970Z,15.50
2018-06-21T07:28:04.976Z,15.30
2018-06-21T07:30:34.278Z,15.32
2018-06-21T07:33:03.562Z,15.05
2018-06-21T07:35:32.923Z,14.53
2018-06-21T07:38:02.182Z,14.83
2018-06-21T07:40:31.427Z,16.32
2018-06-21T07:43:00.635Z,14.73
2018-06-21T07:45:29.883Z,15.75
2018-06-21T07:47:59.121Z,13.03
2018-06-21T07:50:28.416Z,11.97
2018-06-21T07:52:58.246Z,13.62
2018-06-21T07:55:27.475Z,14.13
2018-06-21T07:57:56.824Z,13.60
2018-06-21T08:00:26.097Z,11.90
2018-06-21T08:02:55.397Z,11.88
2018-06-21T08:05:24.617Z,12.35
2018-06-21T08:07:53.873Z,15.18
2018-06-21T08:10:23.176Z,11.70
2018-06-21T08:12:53.441Z,9.98
2018-06-21T08:15:22.615Z,9.25
2018-06-21T08:17:52.005Z,9.15
2018-06-21T08:20:21.300Z,11.53
2018-06-21T08:22:50.518Z,9.85
2018-06-21T08:25:19.767Z,9.73
2018-06-21T08:27:49.003Z,8.80
2018-06-21T08:30:19.053Z,8.93
2018-06-21T08:32:48.388Z,9.18
2018-06-21T08:35:17.891Z,8.25
2018-06-21T08:37:47.280Z,10.43
2018-06-21T08:40:16.560Z,4.40
2018-06-21T08:42:45.771Z,7.08
2018-06-21T08:45:15.083Z,5.30
2018-06-21T08:47:44.415Z,5.78
2018-06-21T08:50:13.672Z,5.03
2018-06-21T08:52:43.548Z,6.65
2018-06-21T08:55:14.487Z,4.97
2018-06-21T08:57:43.701Z,4.40
2018-06-21T09:00:13.127Z,4.42
2018-06-21T09:02:42.428Z,5.17
2018-06-21T09:05:11.745Z,6.72
2018-06-21T09:07:41.245Z,6.15
2018-06-21T09:10:10.572Z,4.20
2018-06-21T09:12:39.833Z,4.72
2018-06-21T09:15:10.569Z,9.25
2018-06-21T09:17:39.869Z,4.78
2018-06-21T09:20:09.128Z,5.03
2018-06-21T09:22:38.365Z,4.97
2018-06-21T09:25:07.708Z,5.28
2018-06-21T09:27:37.239Z,4.28
2018-06-21T09:30:06.824Z,6.75
2018-06-21T09:32:36.144Z,5.95
2018-06-21T09:35:05.416Z,6.45
2018-06-21T09:37:40.001Z,9.58
2018-06-21T09:40:14.653Z,4.20
2018-06-21T09:42:49.303Z,6.50
2018-06-21T09:48:15.958Z,6.25
2018-06-21T09:50:45.215Z,5.22
2018-06-21T09:53:14.583Z,6.92
2018-06-21T09:55:43.845Z,4.12
2018-06-21T09:58:13.142Z,4.92
2018-06-21T10:00:47.673Z,4.92
2018-06-21T10:03:17.479Z,5.33
2018-06-21T10:05:47.517Z,6.67
2018-06-21T10:08:16.927Z,4.15
2018-06-21T10:10:46.318Z,5.35
2018-06-21T10:13:15.552Z,4.55
2018-06-21T10:15:44.966Z,5.65
2018-06-21T10:18:14.204Z,3.90
2018-06-21T10:20:43.582Z,7.03
2018-06-21T10:23:13.451Z,8.40
2018-06-21T10:25:42.753Z,2.47
2018-06-21T10:28:12.260Z,3.27
2018-06-21T10:30:41.561Z,6.30
2018-06-21T10:33:10.819Z,5.62
2018-06-21T10:35:40.090Z,6.72
2018-06-21T10:38:09.389Z,5.33
2018-06-21T10:40:38.631Z,4.55
2018-06-21T10:43:08.368Z,4.67
2018-06-21T10:45:38.189Z,6.67
2018-06-21T10:48:07.474Z,5.95
2018-06-21T10:50:36.827Z,5.40
2018-06-21T10:53:06.069Z,8.50
2018-06-21T10:55:36.192Z,5.20
2018-06-21T10:58:05.475Z,4.87
2018-06-21T11:00:35.508Z,5.28
2018-06-21T11:03:04.804Z,10.35
2018-06-21T11:05:34.081Z,4.22
2018-06-21T11:08:03.324Z,4.92
2018-06-21T11:10:32.592Z,3.75
2018-06-21T11:13:01.878Z,3.62
2018-06-21T11:15:31.103Z,5.65
2018-06-21T11:18:00.341Z,4.00
2018-06-21T11:20:29.634Z,4.83
2018-06-21T11:22:58.952Z,5.28
2018-06-21T11:25:28.180Z,3.87
2018-06-21T11:27:57.428Z,4.85
2018-06-21T11:30:26.763Z,5.17
2018-06-21T11:32:56.033Z,6.33
2018-06-21T11:35:25.276Z,5.40
2018-06-21T11:37:54.532Z,6.17
2018-06-21T11:40:24.204Z,4.45
2018-06-21T11:42:53.560Z,7.25
2018-06-21T11:45:22.963Z,4.45
2018-06-21T11:47:52.880Z,5.00
2018-06-21T11:50:22.151Z,4.78
2018-06-21T11:52:51.420Z,2.98
2018-06-21T11:55:20.663Z,5.75
2018-06-21T11:57:49.928Z,5.05
2018-06-21T12:00:19.252Z,5.53
2018-06-21T12:02:48.807Z,4.00
2018-06-21T12:05:18.041Z,6.35
2018-06-21T12:07:47.347Z,5.12
2018-06-21T12:10:16.667Z,3.58
2018-06-21T12:12:46.020Z,4.72
2018-06-21T12:15:15.380Z,4.60
2018-06-21T12:17:44.663Z,5.22
2018-06-21T12:20:13.929Z,4.62
2018-06-21T12:22:43.334Z,4.78
2018-06-21T12:25:12.644Z,6.75
2018-06-21T12:27:41.955Z,5.50
2018-06-21T12:30:11.375Z,4.40
2018-06-21T12:32:40.637Z,5.05
2018-06-21T12:35:09.860Z,6.10
2018-06-21T12:37:39.895Z,5.97
2018-06-21T12:40:09.159Z,7.22
2018-06-21T12:42:38.514Z,6.97
2018-06-21T12:45:07.839Z,6.67
2018-06-21T12:47:37.126Z,4.62
2018-06-21T12:50:06.452Z,5.03
2018-06-21T12:52:35.990Z,6.50
2018-06-21T12:55:05.237Z,5.80
2018-06-21T12:57:35.195Z,5.00
2018-06-21T13:00:04.572Z,3.95
2018-06-21T13:02:34.200Z,9.05
2018-06-21T13:05:03.441Z,8.08
2018-06-21T13:07:32.786Z,7.10
2018-06-21T13:10:13.460Z,5.78
2018-06-21T13:12:54.860Z,4.50
2018-06-21T13:15:24.417Z,4.08
2018-06-21T13:17:53.686Z,6.67
2018-06-21T13:20:22.983Z,7.92
2018-06-21T13:22:52.275Z,5.92
2018-06-21T13:25:21.855Z,6.45
2018-06-21T13:27:51.455Z,5.28
2018-06-21T13:30:20.757Z,5.72
2018-06-21T13:32:50.743Z,7.45
2018-06-21T13:35:20.134Z,9.63
2018-06-21T13:37:49.530Z,4.80
2018-06-21T13:40:19.218Z,4.25
2018-06-21T13:42:48.558Z,7.58
2018-06-21T13:45:18.179Z,5.83
2018-06-21T13:47:48.019Z,6.15
2018-06-21T13:50:17.229Z,7.17
2018-06-21T13:52:46.483Z,4.80
2018-06-21T13:55:15.895Z,8.00
2018-06-21T13:57:45.176Z,4.17
2018-06-21T14:00:14.455Z,5.12
2018-06-21T14:02:43.768Z,9.18
2018-06-21T14:05:13.208Z,3.83
2018-06-21T14:07:42.584Z,5.55
2018-06-21T14:10:11.657Z,5.90
2018-06-21T14:12:40.939Z,6.65
2018-06-21T14:15:10.326Z,3.80
2018-06-21T14:17:39.615Z,6.50
2018-06-21T14:20:08.888Z,5.50
2018-06-21T14:22:38.120Z,5.83
2018-06-21T14:25:07.404Z,5.22
2018-06-21T14:27:37.293Z,6.08
2018-06-21T14:30:06.711Z,3.80
2018-06-21T14:32:35.962Z,5.67
2018-06-21T14:35:05.297Z,3.05
2018-06-21T14:37:34.567Z,6.33
2018-06-21T14:40:04.571Z,5.58
2018-06-21T14:42:33.797Z,4.72
2018-06-21T14:45:03.067Z,5.58
2018-06-21T14:47:32.696Z,4.50
2018-06-21T14:50:02.668Z,3.30
2018-06-21T14:52:31.915Z,5.33
2018-06-21T14:55:01.185Z,4.03
2018-06-21T14:57:30.594Z,5.92
2018-06-21T14:59:59.825Z,8.18
2018-06-21T15:02:29.080Z,6.33
2018-06-21T15:04:58.471Z,5.83
2018-06-21T15:07:27.623Z,5.20
2018-06-21T15:09:56.864Z,5.50
2018-06-21T15:12:26.099Z,5.33
2018-06-21T15:14:55.311Z,5.37
2018-06-21T15:17:24.563Z,4.17
2018-06-21T15:19:53.907Z,5.87
2018-06-21T15:22:23.699Z,2.85
2018-06-21T15:24:52.895Z,5.00
2018-06-21T15:27:22.223Z,5.25
2018-06-21T15:29:51.588Z,4.60
2018-06-21T15:32:20.895Z,3.27
2018-06-21T15:34:50.171Z,3.27
2018-06-21T15:37:19.519Z,4.40
2018-06-21T15:39:48.764Z,2.55
2018-06-21T15:42:18.007Z,2.85
2018-06-21T15:44:48.000Z,2.75
2018-06-21T15:47:17.270Z,5.33
2018-06-21T15:49:51.085Z,3.62
2018-06-21T15:52:20.366Z,3.27
2018-06-21T15:54:49.936Z,4.12
2018-06-21T15:57:19.278Z,3.92
2018-06-21T15:59:48.487Z,3.20
2018-06-21T16:02:17.913Z,2.55
2018-06-21T16:04:47.216Z,6.62
2018-06-21T16:07:16.804Z,4.65
2018-06-21T16:09:46.044Z,3.05
2018-06-21T16:12:15.600Z,4.70
2018-06-21T16:14:45.165Z,4.65
2018-06-21T16:17:14.446Z,5.58
2018-06-21T16:19:43.747Z,6.90
2018-06-21T16:22:13.019Z,5.00
2018-06-21T16:24:42.275Z,3.17
2018-06-21T16:27:11.624Z,3.95
2018-06-21T16:29:41.519Z,4.95
2018-06-21T16:32:10.830Z,3.15
2018-06-21T16:34:40.159Z,2.98
2018-06-21T16:37:09.636Z,8.33
2018-06-21T16:39:38.892Z,5.05
2018-06-21T16:42:08.143Z,6.83
2018-06-21T16:44:37.411Z,6.37
2018-06-21T16:47:06.703Z,5.83
2018-06-21T16:49:35.965Z,3.20
2018-06-21T16:52:05.381Z,3.33
2018-06-21T16:54:34.641Z,2.83
2018-06-21T16:57:03.890Z,2.67
2018-06-21T16:59:33.484Z,5.80
2018-06-21T17:02:02.772Z,3.22
2018-06-21T17:04:32.083Z,4.47
2018-06-21T17:07:01.314Z,4.28
2018-06-21T17:09:30.611Z,3.52
2018-06-21T17:11:59.952Z,2.00
2018-06-21T17:14:29.302Z,2.75
2018-06-21T17:16:59.081Z,4.37
2018-06-21T17:19:28.584Z,5.35
2018-06-21T17:21:57.777Z,3.42
2018-06-21T17:24:27.468Z,3.83
2018-06-21T17:26:56.755Z,3.55
2018-06-21T17:29:26.025Z,3.00
2018-06-21T17:31:55.284Z,4.50
2018-06-21T17:34:24.567Z,3.72
2018-06-21T17:36:54.737Z,3.17
2018-06-21T17:39:24.009Z,4.70
2018-06-21T17:41:53.303Z,3.83
2018-06-21T17:44:22.545Z,4.23
2018-06-21T17:46:51.859Z,5.43
2018-06-21T17:49:21.153Z,4.70
2018-06-21T17:51:50.444Z,2.58
2018-06-21T17:54:19.701Z,3.77
2018-06-21T17:56:48.638Z,4.80
2018-06-21T17:59:17.741Z,3.70
2018-06-21T18:01:47.239Z,3.67
2018-06-21T18:04:16.535Z,4.83
2018-06-21T18:06:46.791Z,4.30
2018-06-21T18:09:16.083Z,5.50
2018-06-21T18:11:45.395Z,4.85
2018-06-21T18:14:14.748Z,4.37
2018-06-21T18:16:44.017Z,4.35
2018-06-21T18:19:13.345Z,5.30
2018-06-21T18:21:42.670Z,4.33
2018-06-21T18:24:12.097Z,7.42
2018-06-21T18:26:41.359Z,4.17
2018-06-21T18:29:10.686Z,4.08
2018-06-21T18:31:39.977Z,4.20
2018-06-21T18:34:10.361Z,4.40
2018-06-21T18:36:40.028Z,6.70
2018-06-21T18:39:11.813Z,5.13
2018-06-21T18:41:41.611Z,2.72
2018-06-21T18:44:11.177Z,5.42
2018-06-21T18:46:40.488Z,2.58
2018-06-21T18:49:09.813Z,4.75
2018-06-21T18:51:39.131Z,2.90
2018-06-21T18:54:08.414Z,5.97
2018-06-21T18:56:38.707Z,5.73
2018-06-21T18:59:08.013Z,3.70
2018-06-21T19:01:37.469Z,7.00
2018-06-21T19:04:06.840Z,2.27
2018-06-21T19:06:41.423Z,4.70
2018-06-21T19:09:16.080Z,4.40
2018-06-21T19:11:51.032Z,3.42
2018-06-21T19:14:20.412Z,4.00
2018-06-21T19:16:49.677Z,2.87
2018-06-21T19:19:19.042Z,3.90
2018-06-21T19:21:48.231Z,1.93
2018-06-21T19:24:17.463Z,4.73
2018-06-21T19:26:46.816Z,3.83
2018-06-21T19:29:16.158Z,5.47
2018-06-21T19:31:45.556Z,5.30
2018-06-21T19:34:15.067Z,5.33
2018-06-21T19:36:44.346Z,7.40
2018-06-21T19:39:13.637Z,4.45
2018-06-21T19:41:42.969Z,3.97
2018-06-21T19:44:12.356Z,6.67
2018-06-21T19:46:41.620Z,3.77
2018-06-21T19:49:11.489Z,6.23
2018-06-21T19:51:40.942Z,7.03
2018-06-21T19:54:10.312Z,4.03
2018-06-21T19:56:39.599Z,6.60
2018-06-21T19:59:08.947Z,6.10
2018-06-21T20:01:38.231Z,3.60
2018-06-21T20:04:07.696Z,3.93
2018-06-21T20:06:37.025Z,5.67
2018-06-21T20:09:09.016Z,3.17
2018-06-21T20:11:38.704Z,5.13
2018-06-21T20:14:07.963Z,5.23
2018-06-21T20:16:37.292Z,8.33
2018-06-21T20:19:10.138Z,5.67
2018-06-21T20:21:39.750Z,6.53
2018-06-21T20:24:09.830Z,4.50
2018-06-21T20:26:39.570Z,4.13
2018-06-21T20:29:14.076Z,3.17
2018-06-21T20:31:43.741Z,6.47
2018-06-21T20:34:13.475Z,6.53
2018-06-21T20:36:42.867Z,4.00
2018-06-21T20:39:12.536Z,5.50
2018-06-21T20:41:41.868Z,2.97
2018-06-21T20:44:11.242Z,4.57
2018-06-21T20:46:40.608Z,4.67
2018-06-21T20:49:09.843Z,5.00
2018-06-21T20:51:39.420Z,7.60
2018-06-21T20:54:08.764Z,5.40
2018-06-21T20:56:38.093Z,5.17
2018-06-21T20:59:07.540Z,7.80
2018-06-21T21:01:36.788Z,4.50
2018-06-21T21:04:06.057Z,5.37
2018-06-21T21:06:35.362Z,6.97
2018-06-21T21:09:07.060Z,6.37
2018-06-21T21:11:36.469Z,4.60
2018-06-21T21:14:05.682Z,7.33
2018-06-21T21:16:35.005Z,6.90
2018-06-21T21:19:04.228Z,6.80
2018-06-21T21:21:33.522Z,4.60
2018-06-21T21:24:02.849Z,4.93
2018-06-21T21:26:32.060Z,7.60
2018-06-21T21:29:01.299Z,5.10
2018-06-21T21:31:30.561Z,6.33
2018-06-21T21:33:59.816Z,4.53
2018-06-21T21:36:29.008Z,7.80
2018-06-21T21:38:58.212Z,6.00
2018-06-21T21:41:27.750Z,6.83
2018-06-21T21:43:56.971Z,9.03
2018-06-21T21:46:26.297Z,7.20
2018-06-21T21:48:55.535Z,6.27
2018-06-21T21:51:24.840Z,10.10
2018-06-21T21:53:54.525Z,7.40
2018-06-21T21:56:24.111Z,7.13
2018-06-21T21:58:53.354Z,7.60
2018-06-21T22:01:22.627Z,7.47
2018-06-21T22:03:52.029Z,10.47
2018-06-21T22:06:21.308Z,8.27
2018-06-21T22:08:50.619Z,9.30
2018-06-21T22:11:20.582Z,8.33
2018-06-21T22:13:54.813Z,6.97
2018-06-21T22:16:24.079Z,7.97
2018-06-21T22:18:53.375Z,9.03
2018-06-21T22:21:22.723Z,10.00
2018-06-21T22:23:52.025Z,7.70
2018-06-21T22:26:21.365Z,8.07
2018-06-21T22:28:50.712Z,8.67
2018-06-21T22:31:19.910Z,10.23
2018-06-21T22:33:49.417Z,11.53
2018-06-21T22:36:19.368Z,9.33
2018-06-21T22:38:48.596Z,13.07
2018-06-21T22:41:17.866Z,7.27
2018-06-21T22:43:47.113Z,9.20
2018-06-21T22:46:16.323Z,8.07
2018-06-21T22:48:45.718Z,9.50
2018-06-21T22:51:15.000Z,5.93
2018-06-21T22:53:44.235Z,9.93
2018-06-21T22:56:13.399Z,7.63
2018-06-21T22:58:42.676Z,8.17
2018-06-21T23:01:11.900Z,9.20
2018-06-21T23:03:41.099Z,8.20
2018-06-21T23:06:10.340Z,7.33
2018-06-21T23:08:39.592Z,9.87
2018-06-21T23:11:08.467Z,7.93
2018-06-21T23:13:37.675Z,11.07
2018-06-21T23:16:06.919Z,7.63
2018-06-21T23:18:47.460Z,9.73
2018-06-21T23:21:17.327Z,8.70
2018-06-21T23:23:46.925Z,9.03
2018-06-21T23:26:16.199Z,6.57
2018-06-21T23:28:45.470Z,7.33
2018-06-21T23:31:14.645Z,4.97
2018-06-21T23:33:43.897Z,5.87
2018-06-21T23:36:13.116Z,7.43
2018-06-21T23:38:42.370Z,7.50
2018-06-21T23:41:11.568Z,5.77
2018-06-21T23:43:40.839Z,9.63
2018-06-21T23:46:10.248Z,7.33
2018-06-21T23:48:39.484Z,5.83
2018-06-21T23:51:08.740Z,7.00
2018-06-21T23:53:38.103Z,7.23
2018-06-21T23:56:07.311Z,7.80
2018-06-21T23:58:36.647Z,10.80
